Time;durP1;ratioP1;P1;durP2;ratioP2;P2;SDS_P1;SDS_P2;PMS_P1;PMS_P2;Temp;Humidity;BMP_temperature;BMP_pressure;BME280_temperature;BME280_humidity;BME280_pressure;Samples;Min_cycle;Max_cycle;Signal;HPM_P1;HPM_P2
2024/03/21 00:02:14;;;;;;;13.50;11.10;;;8.10;86.00;;;7.57;86.71;98238.94;5074563;28;20997;-71
2024/03/21 00:04:44;;;;;;;14.70;11.90;;;8.10;86.10;;;7.39;87.23;98233.97;5061496;28;20463;-69
2024/03/21 00:07:11;;;;;;;14.60;10.50;;;8.20;85.70;;;7.28;88.29;98227.25;5036893;28;20477;-70
2024/03/21 00:09:43;;;;;;;13.97;10.67;;;8.10;85.90;;;7.17;88.53;98220.50;5060459;28;20565;-70
2024/03/21 00:12:11;;;;;;;16.10;11.70;;;8.10;85.70;;;6.68;88.58;98137.88;5061176;28;20487;-71
2024/03/21 00:14:40;;;;;;;16.20;11.47;;;8.10;85.90;;;6.77;89.03;98153.69;5052204;28;20477;-70
2024/03/21 00:17:07;;;;;;;15.17;10.20;;;8.00;86.00;;;7.33;88.49;98210.53;5056798;28;20472;-70
2024/03/21 00:19:35;;;;;;;13.60;11.50;;;8.00;86.40;;;7.33;87.90;98205.97;5058103;28;21301;-70
2024/03/21 00:22:01;;;;;;;15.03;11.83;;;8.10;86.10;;;7.36;87.86;98211.00;5061259;28;20460;-70
2024/03/21 00:24:29;;;;;;;16.10;11.70;;;8.00;86.30;;;7.32;87.92;98212.38;5051584;28;20887;-71
2024/03/21 00:26:55;;;;;;;14.83;12.10;;;8.00;86.40;;;7.29;88.12;98210.09;5057251;28;20503;-70
2024/03/21 00:29:24;;;;;;;16.20;11.73;;;7.90;86.60;;;7.28;88.18;98208.41;5057196;28;20563;-70
2024/03/21 00:31:51;;;;;;;18.30;12.30;;;7.90;86.80;;;7.30;88.29;98211.75;5059908;28;20541;-70
2024/03/21 00:34:19;;;;;;;14.80;11.63;;;7.80;87.10;;;7.22;87.90;98214.56;5062002;28;20471;-70
2024/03/21 00:36:45;;;;;;;17.53;11.90;;;7.80;87.00;;;7.09;89.05;98209.84;5056392;28;20558;-69
2024/03/21 00:39:18;;;;;;;17.23;12.43;;;7.70;87.50;;;7.18;88.53;98208.72;5031771;28;20988;-69
2024/03/21 00:41:44;;;;;;;15.07;12.40;;;7.70;87.80;;;7.16;88.58;98209.94;5051073;28;21346;-69
2024/03/21 00:44:12;;;;;;;15.47;12.07;;;7.70;87.60;;;7.06;89.08;98211.06;5059005;28;20481;-70
2024/03/21 00:46:38;;;;;;;16.63;11.53;;;7.60;87.80;;;6.96;89.60;98207.84;5057586;28;20481;-71
2024/03/21 00:49:08;;;;;;;15.47;12.13;;;7.50;88.10;;;6.93;90.07;98218.97;5057561;28;20573;-70
2024/03/21 00:51:35;;;;;;;16.17;12.17;;;7.50;88.90;;;6.78;90.46;98219.81;5058445;28;20568;-70
2024/03/21 00:54:02;;;;;;;13.10;11.80;;;7.50;89.30;;;6.91;90.66;98221.00;5054735;28;20518;-70
2024/03/21 00:56:28;;;;;;;18.10;12.27;;;7.50;89.20;;;6.77;90.60;98218.16;5055947;28;20492;-70
2024/03/21 00:58:58;;;;;;;13.67;12.10;;;7.50;89.40;;;6.95;90.16;98219.59;5054428;28;20467;-70
2024/03/21 01:01:25;;;;;;;17.23;12.17;;;7.50;89.00;;;6.74;91.08;98218.50;5060126;28;20483;-71
2024/03/21 01:03:52;;;;;;;17.00;11.90;;;7.50;89.20;;;6.78;90.91;98209.06;5062048;28;20488;-71
2024/03/21 01:06:20;;;;;;;14.43;11.77;;;7.60;88.70;;;6.78;90.34;98214.44;5055746;28;20476;-70
2024/03/21 01:08:47;;;;;;;17.83;12.17;;;7.60;88.60;;;6.80;90.56;98207.03;5054247;28;20501;-70
2024/03/21 01:11:13;;;;;;;16.77;12.83;;;7.60;88.10;;;6.97;89.61;98208.66;5056382;28;20628;-69
2024/03/21 01:13:41;;;;;;;14.07;11.33;;;7.50;88.40;;;6.94;89.40;98202.66;5060510;28;20577;-69
2024/03/21 01:16:08;;;;;;;16.47;12.80;;;7.50;88.30;;;6.88;89.96;98199.88;5053791;28;21008;-70
2024/03/21 01:18:35;;;;;;;14.33;12.13;;;7.50;88.70;;;6.87;90.06;98207.13;5057341;28;20527;-68
2024/03/21 01:21:03;;;;;;;14.70;11.20;;;7.50;88.90;;;6.80;90.44;98204.34;5057605;28;21786;-70
2024/03/21 01:23:33;;;;;;;15.60;12.70;;;7.40;88.60;;;6.80;90.21;98200.81;5053608;28;20499;-69
2024/03/21 01:26:01;;;;;;;18.23;11.60;;;7.40;89.00;;;6.72;90.31;98201.75;5060084;28;20475;-69
2024/03/21 01:28:30;;;;;;;17.13;11.87;;;7.30;89.40;;;6.74;89.95;98188.94;5059945;28;20567;-70
2024/03/21 01:30:59;;;;;;;16.03;12.40;;;7.40;89.10;;;6.35;92.33;98188.22;5057239;28;20513;-69
2024/03/21 01:33:28;;;;;;;16.07;12.53;;;7.20;88.90;;;6.48;92.27;98190.28;5069984;28;20495;-70
2024/03/21 01:35:55;;;;;;;15.97;12.60;;;7.20;90.20;;;6.64;91.21;98185.75;5069559;28;20472;-68
2024/03/21 01:38:24;;;;;;;18.87;11.57;;;7.20;90.10;;;6.68;90.84;98178.97;5057507;28;20479;-70
2024/03/21 01:40:54;;;;;;;16.43;11.37;;;7.30;89.70;;;6.67;90.31;98180.00;5051182;28;20963;-69
2024/03/21 01:43:26;;;;;;;15.47;11.90;;;7.30;89.10;;;6.62;90.75;98188.59;5040750;28;20479;-69
2024/03/21 01:46:13;;;;;;;19.60;13.10;;;7.30;89.00;;;6.61;90.75;98191.50;5077178;28;20479;-69
2024/03/21 01:48:43;;;;;;;15.53;11.53;;;7.20;89.60;;;6.58;90.58;98189.16;5059740;28;20483;-69
2024/03/21 01:51:11;;;;;;;15.23;12.93;;;7.20;89.50;;;6.49;91.21;98197.31;5069872;28;20474;-70
2024/03/21 01:53:38;;;;;;;14.20;11.17;;;7.20;89.30;;;6.45;91.15;98182.59;5055766;28;20964;-71
2024/03/21 01:56:07;;;;;;;17.13;12.53;;;7.20;89.40;;;6.02;90.67;98118.00;5059241;28;20487;-68
2024/03/21 01:58:35;;;;;;;20.80;13.10;;;7.20;89.40;;;6.54;90.84;98198.59;5060073;28;20492;-71
2024/03/21 02:01:27;;;;;;;15.17;12.07;;;7.10;90.00;;;6.54;90.47;98195.91;5054572;28;20469;-71
2024/03/21 02:03:56;;;;;;;18.20;13.60;;;7.10;89.70;;;6.49;90.85;98196.47;5056228;28;21119;-70
2024/03/21 02:06:23;;;;;;;15.60;12.70;;;7.10;89.40;;;6.52;90.71;98191.56;5060183;28;20541;-70
2024/03/21 02:08:53;;;;;;;19.43;12.60;;;7.10;89.80;;;6.53;90.68;98189.72;5058039;28;20491;-71
2024/03/21 02:11:21;;;;;;;19.33;11.97;;;7.10;89.90;;;6.36;91.24;98184.50;5064637;28;20514;-69
2024/03/21 02:13:50;;;;;;;15.07;12.50;;;7.00;89.40;;;6.21;92.63;98189.03;5060968;28;20506;-71
2024/03/21 02:16:16;;;;;;;17.27;13.40;;;6.80;90.00;;;6.23;92.57;98190.53;5060160;28;20483;-71
2024/03/21 02:18:45;;;;;;;14.37;12.43;;;6.80;90.60;;;6.23;92.92;98187.84;5055883;28;20930;-69
2024/03/21 02:23:57;;;;;;;19.07;14.03;;;6.80;90.80;;;5.89;94.67;98181.09;5073241;28;20502;-70
2024/03/21 02:26:25;;;;;;;17.43;13.80;;;6.70;90.80;;;6.17;94.02;98175.19;5063227;28;20507;-69
2024/03/21 02:28:54;;;;;;;19.10;14.03;;;6.80;91.20;;;6.31;93.00;98175.38;5059865;28;21039;-69
2024/03/21 02:31:23;;;;;;;17.40;14.40;;;6.90;90.80;;;6.36;92.25;98183.69;5058559;28;20490;-70
2024/03/21 02:33:50;;;;;;;17.73;13.00;;;6.90;90.80;;;6.33;92.45;98181.38;5055245;28;20490;-69
2024/03/21 02:36:18;;;;;;;17.70;13.40;;;6.90;90.50;;;6.22;92.66;98186.19;5057354;28;20495;-69
2024/03/21 02:38:45;;;;;;;16.77;13.60;;;6.80;90.60;;;6.37;92.25;98182.69;5061914;28;20495;-69
2024/03/21 02:41:13;;;;;;;16.63;12.67;;;6.80;91.10;;;6.37;91.74;98180.00;5055533;28;20488;-70
2024/03/21 02:43:39;;;;;;;17.20;12.70;;;6.90;90.60;;;6.34;91.70;98180.38;5063743;28;20470;-69
2024/03/21 02:46:06;;;;;;;16.87;13.23;;;7.00;90.40;;;6.35;91.89;98176.66;5056240;28;20546;-69
2024/03/21 02:48:33;;;;;;;15.90;12.90;;;7.00;90.30;;;6.33;91.81;98173.34;5059872;28;21070;-69
2024/03/21 02:51:01;;;;;;;15.60;12.47;;;7.00;90.10;;;6.34;91.32;98178.50;5062345;28;20521;-69
2024/03/21 02:53:27;;;;;;;13.60;12.20;;;7.00;90.00;;;6.20;92.45;98169.44;5061437;28;20495;-70
2024/03/21 02:55:54;;;;;;;17.33;12.67;;;7.00;89.80;;;6.27;91.79;98179.41;5058653;28;20487;-70
2024/03/21 02:58:22;;;;;;;15.43;13.43;;;7.00;89.70;;;6.04;92.36;98180.31;5057055;28;20513;-70
2024/03/21 03:00:56;;;;;;;18.10;13.57;;;6.90;89.90;;;6.04;92.69;98169.59;5051296;28;20480;-70
2024/03/21 03:03:23;;;;;;;14.90;12.47;;;6.90;90.00;;;6.02;92.67;98177.00;5052065;28;20469;-69
2024/03/21 03:05:50;;;;;;;15.10;12.13;;;6.90;89.70;;;6.06;92.40;98173.75;5062970;28;20473;-69
2024/03/21 03:08:17;;;;;;;15.47;13.07;;;6.90;90.00;;;6.05;92.48;98165.91;5056088;28;20480;-70
2024/03/21 03:10:45;;;;;;;17.27;12.73;;;6.90;89.90;;;6.05;92.71;98166.72;5044390;28;20567;-69
2024/03/21 03:13:12;;;;;;;14.07;11.87;;;6.90;89.70;;;6.01;92.59;98161.91;5072723;28;20493;-69
2024/03/21 03:15:43;;;;;;;12.83;10.87;;;6.90;89.40;;;5.98;92.73;98159.56;5049638;28;21237;-69
2024/03/21 03:18:09;;;;;;;18.17;12.97;;;6.90;89.20;;;5.90;92.77;98180.09;5063053;28;20515;-70
2024/03/21 03:20:36;;;;;;;14.10;11.67;;;6.80;89.50;;;5.83;93.21;98160.34;5056751;28;20473;-71
2024/03/21 03:23:03;;;;;;;15.20;11.43;;;6.80;89.20;;;5.98;92.26;98159.56;5055205;28;20824;-70
2024/03/21 03:25:30;;;;;;;15.07;11.37;;;6.70;89.60;;;5.96;91.64;98163.25;5062920;28;20677;-69
2024/03/21 03:27:56;;;;;;;15.80;10.80;;;6.70;89.60;;;5.99;91.62;98161.22;5059141;28;20523;-69
2024/03/21 03:30:23;;;;;;;14.27;10.70;;;6.60;90.00;;;6.06;91.26;98163.00;5057177;28;20479;-70
2024/03/21 03:32:58;;;;;;;13.00;11.17;;;6.70;90.00;;;6.09;90.78;98168.03;5054568;28;20562;-69
2024/03/21 03:35:40;;;;;;;14.20;11.90;;;6.70;89.80;;;6.14;90.48;98162.13;5061218;28;20474;-70
2024/03/21 03:38:08;;;;;;;16.37;12.03;;;6.80;89.20;;;6.12;90.04;98163.31;5060106;28;20486;-69
2024/03/21 03:40:39;;;;;;;14.33;11.77;;;6.80;88.80;;;5.70;90.16;98098.50;5056652;28;20484;-70
2024/03/21 03:43:07;;;;;;;13.20;11.30;;;6.80;88.80;;;6.07;90.91;98166.53;5059735;28;20468;-70
2024/03/21 03:45:34;;;;;;;16.30;12.07;;;6.80;88.90;;;6.15;90.74;98161.13;5065868;28;20486;-69
2024/03/21 03:48:05;;;;;;;17.27;13.17;;;6.80;89.10;;;6.07;90.59;98153.13;5059071;28;20536;-69
2024/03/21 03:50:33;;;;;;;13.73;11.83;;;6.70;88.80;;;5.70;90.45;98095.81;5055778;28;20474;-68
2024/03/21 03:52:59;;;;;;;17.03;12.07;;;6.70;89.20;;;6.02;90.62;98160.91;5041761;28;21207;-69
2024/03/21 03:55:27;;;;;;;12.83;11.50;;;6.60;89.00;;;6.03;90.27;98149.16;5061290;28;20486;-68
2024/03/21 03:57:55;;;;;;;13.33;10.40;;;6.70;89.50;;;6.06;90.00;98156.84;5053295;28;20507;-68
2024/03/21 04:00:21;;;;;;;15.33;11.30;;;6.70;89.00;;;5.93;91.04;98146.72;5057553;28;20471;-71
2024/03/21 04:02:51;;;;;;;11.73;10.63;;;6.60;88.60;;;5.98;90.42;98147.00;5061100;28;20470;-68
2024/03/21 04:05:20;;;;;;;16.90;11.43;;;6.70;88.50;;;6.01;90.11;98148.47;5060061;28;20469;-69
2024/03/21 04:07:48;;;;;;;16.23;12.03;;;6.70;88.30;;;5.95;90.11;98145.50;5059094;28;20892;-69
2024/03/21 04:10:14;;;;;;;22.10;12.10;;;6.70;88.10;;;5.94;90.07;98151.88;5057654;28;20564;-70
2024/03/21 04:12:41;;;;;;;14.60;11.57;;;6.60;88.50;;;5.92;90.19;98153.91;5077033;28;21312;-70
2024/03/21 04:15:09;;;;;;;15.20;10.90;;;6.60;88.60;;;5.92;90.27;98161.13;5056553;28;20998;-70
2024/03/21 04:17:36;;;;;;;13.57;11.30;;;6.50;88.60;;;5.75;90.65;98152.41;5058140;28;20541;-70
2024/03/21 04:20:06;;;;;;;13.47;11.00;;;6.60;88.60;;;5.80;90.45;98158.03;5054168;28;20483;-68
2024/03/21 04:22:35;;;;;;;15.50;11.97;;;6.50;88.50;;;5.67;91.32;98156.81;5055895;28;20591;-69
2024/03/21 04:25:03;;;;;;;13.13;10.93;;;6.40;88.50;;;5.60;91.41;98141.63;5057482;28;20473;-69
2024/03/21 04:27:30;;;;;;;12.47;11.17;;;6.40;89.40;;;5.66;92.17;98157.00;5053854;28;21452;-68
2024/03/21 04:29:59;;;;;;;13.27;10.70;;;6.30;89.90;;;5.59;91.46;98150.69;5062056;28;20478;-70
2024/03/21 04:32:26;;;;;;;13.87;11.20;;;6.30;89.80;;;5.56;92.86;98151.88;5052286;28;20560;-68
2024/03/21 04:34:53;;;;;;;18.70;12.43;;;6.30;90.00;;;5.51;92.42;98144.38;5060036;28;20505;-68
2024/03/21 04:37:22;;;;;;;13.70;12.20;;;6.30;90.30;;;5.56;92.54;98151.88;5062196;28;20511;-70
2024/03/21 04:39:51;;;;;;;16.80;11.00;;;6.20;90.40;;;5.51;92.87;98167.66;5062775;28;20979;-69
2024/03/21 04:42:19;;;;;;;13.97;11.93;;;6.10;90.30;;;5.47;93.41;98159.16;5053754;28;20555;-69
2024/03/21 04:44:46;;;;;;;14.77;11.60;;;6.10;90.70;;;5.42;94.11;98158.03;5057241;28;20474;-70
2024/03/21 04:47:14;;;;;;;14.67;10.67;;;6.00;91.00;;;5.44;94.25;98162.19;5058556;28;20475;-70
2024/03/21 04:49:41;;;;;;;14.43;10.60;;;6.00;91.10;;;5.42;94.05;98155.34;5049453;28;20488;-70
2024/03/21 04:52:09;;;;;;;13.73;11.17;;;6.00;91.30;;;5.35;94.61;98155.22;5055128;28;20569;-70
2024/03/21 04:54:35;;;;;;;14.77;11.40;;;5.90;91.50;;;5.35;94.55;98156.03;5058672;28;21181;-69
2024/03/21 04:57:04;;;;;;;15.07;12.00;;;5.90;91.70;;;5.15;95.81;98158.34;5054328;28;20510;-69
2024/03/21 04:59:31;;;;;;;16.80;12.60;;;5.90;91.90;;;4.55;96.57;98080.41;5060914;28;20478;-69
2024/03/21 05:01:59;;;;;;;15.40;12.57;;;5.90;92.20;;;5.23;95.87;98158.31;5057986;28;20475;-68
2024/03/21 05:04:26;;;;;;;16.23;11.77;;;6.00;92.20;;;5.37;94.88;98159.38;5060613;28;20494;-69
2024/03/21 05:06:54;;;;;;;14.93;11.73;;;6.20;91.80;;;5.41;94.67;98153.69;5043634;28;20485;-68
2024/03/21 05:09:21;;;;;;;13.83;11.00;;;6.30;91.30;;;5.32;95.22;98161.75;5054921;28;21015;-68
2024/03/21 05:11:49;;;;;;;12.67;10.90;;;6.20;90.90;;;5.43;95.63;98162.38;5063184;28;20491;-68
2024/03/21 05:14:16;;;;;;;16.50;12.70;;;6.10;91.00;;;5.21;95.80;98159.50;5061898;28;20485;-68
2024/03/21 05:16:45;;;;;;;15.77;11.80;;;6.10;91.40;;;5.37;96.04;98158.56;5057931;28;20848;-68
2024/03/21 05:19:11;;;;;;;15.43;12.30;;;6.10;91.90;;;5.42;94.70;98166.06;5072244;28;20476;-70
2024/03/21 05:21:41;;;;;;;12.80;11.00;;;6.30;91.30;;;5.35;94.90;98156.03;5051592;28;20593;-69
2024/03/21 05:24:07;;;;;;;21.70;11.90;;;6.30;90.90;;;5.33;95.93;98167.97;5056537;28;20490;-70
2024/03/21 05:26:35;;;;;;;15.73;12.80;;;6.30;90.90;;;5.41;95.75;98159.03;5047856;28;20491;-70
2024/03/21 05:29:01;;;;;;;14.80;11.87;;;6.20;91.20;;;5.65;93.84;98166.06;5066347;28;20496;-71
2024/03/21 05:31:33;;;;;;;14.00;11.30;;;6.30;91.00;;;5.71;92.80;98161.81;5046021;28;20843;-69
2024/03/21 05:34:00;;;;;;;14.93;12.77;;;6.30;90.70;;;5.73;93.37;98154.44;5060129;28;20484;-69
2024/03/21 05:36:28;;;;;;;15.90;12.73;;;6.40;90.90;;;5.58;93.99;98155.22;5064238;28;20578;-69
2024/03/21 05:38:54;;;;;;;15.17;12.37;;;6.20;90.70;;;5.61;94.72;98154.00;5056076;28;20484;-69
2024/03/21 05:41:21;;;;;;;15.53;12.23;;;6.20;91.30;;;5.61;94.10;98157.53;5061177;28;20478;-68
2024/03/21 05:43:48;;;;;;;17.17;12.37;;;6.30;91.70;;;5.27;94.43;98097.19;5061690;28;20462;-72
2024/03/21 05:46:15;;;;;;;14.77;11.13;;;6.40;91.40;;;5.51;94.47;98155.09;5066785;28;20519;-71
2024/03/21 05:48:43;;;;;;;17.20;12.93;;;6.40;90.60;;;5.51;94.64;98146.22;5062853;28;20487;-71
2024/03/21 05:51:10;;;;;;;15.17;12.50;;;6.50;90.40;;;5.72;93.74;98163.50;5064105;28;20486;-70
2024/03/21 05:53:36;;;;;;;19.43;12.70;;;6.60;90.30;;;5.75;93.33;98153.22;5062492;28;20491;-70
2024/03/21 05:56:05;;;;;;;17.63;12.03;;;6.70;90.00;;;5.94;92.57;98154.56;5063376;28;21181;-71
2024/03/21 05:58:33;;;;;;;17.07;11.90;;;6.80;90.00;;;5.98;92.22;98138.09;5062987;28;20471;-69
2024/03/21 06:01:07;;;;;;;17.93;12.33;;;6.90;89.40;;;6.11;92.08;98156.28;5061097;28;21225;-68
2024/03/21 06:03:34;;;;;;;24.07;12.50;;;7.00;89.00;;;6.28;90.64;98164.97;5064410;28;20535;-77
2024/03/21 06:06:03;;;;;;;22.20;13.20;;;7.20;88.50;;;6.37;89.92;98153.16;5059349;28;20477;-71
2024/03/21 06:08:29;;;;;;;14.43;11.10;;;7.20;87.90;;;6.49;89.37;98157.03;5062851;28;20490;-71
2024/03/21 06:10:56;;;;;;;16.40;12.30;;;7.40;87.40;;;6.52;88.34;98151.31;5059878;28;20488;-71
2024/03/21 06:13:23;;;;;;;16.57;12.00;;;7.50;86.70;;;6.36;87.80;98087.09;5061650;28;20807;-71
2024/03/21 06:15:50;;;;;;;18.90;13.67;;;7.60;86.50;;;6.97;86.56;98154.94;5074126;28;20485;-70
2024/03/21 06:18:16;;;;;;;15.63;11.70;;;7.80;86.50;;;6.99;86.41;98156.41;5061559;28;20475;-70
2024/03/21 06:20:45;;;;;;;20.00;13.43;;;7.90;85.50;;;6.95;86.24;98158.63;5058544;28;20480;-70
2024/03/21 06:23:12;;;;;;;16.73;12.80;;;7.90;85.10;;;7.13;85.15;98151.19;5061081;28;20475;-71
2024/03/21 06:25:41;;;;;;;15.23;11.77;;;8.00;84.90;;;7.80;86.61;98158.06;5062543;28;20473;-70
2024/03/21 06:28:08;;;;;;;20.50;11.77;;;8.40;87.70;;;8.02;82.72;98143.72;5078716;28;20528;-70
2024/03/21 06:30:36;;;;;;;15.93;12.30;;;8.70;84.70;;;8.31;80.76;98152.63;5056229;28;20474;-70
2024/03/21 06:33:03;;;;;;;16.87;11.53;;;8.90;84.00;;;7.65;80.16;98084.69;5059686;28;20530;-70
2024/03/21 06:35:30;;;;;;;17.70;12.70;;;8.90;83.10;;;8.20;79.93;98162.91;5061068;28;20472;-70
2024/03/21 06:37:57;;;;;;;15.67;11.47;;;8.80;82.80;;;8.02;80.37;98159.88;5060875;28;20494;-70
2024/03/21 06:40:27;;;;;;;14.73;12.33;;;8.80;82.80;;;8.01;80.99;98182.44;5059940;28;20491;-69
2024/03/21 06:42:53;;;;;;;15.60;12.03;;;8.80;83.10;;;8.02;80.49;98171.47;5056826;28;20848;-68
2024/03/21 06:45:22;;;;;;;14.97;11.70;;;8.80;82.80;;;7.57;80.91;98103.63;5061554;28;20604;-74
2024/03/21 06:47:50;;;;;;;20.70;12.30;;;8.90;82.90;;;8.28;80.07;98180.75;5060135;28;20980;-73
2024/03/21 06:50:19;;;;;;;19.97;11.90;;;9.00;82.80;;;8.20;80.12;98179.06;5075437;28;20476;-69
2024/03/21 06:52:47;;;;;;;15.50;12.47;;;9.00;82.40;;;8.64;78.12;98185.19;5061057;28;20929;-68
2024/03/21 06:55:14;;;;;;;25.30;12.80;;;9.20;82.30;;;8.85;77.17;98177.16;5059905;28;20476;-69
2024/03/21 06:57:43;;;;;;;16.20;12.83;;;9.40;82.20;;;8.57;77.51;98178.06;5058369;28;20500;-68
2024/03/21 07:00:12;;;;;;;17.20;12.43;;;9.40;81.70;;;8.50;78.16;98176.16;5057893;28;20981;-70
2024/03/21 07:02:39;;;;;;;19.37;13.63;;;9.40;81.50;;;8.57;77.85;98178.06;5054716;28;20964;-75
2024/03/21 07:05:07;;;;;;;16.27;12.57;;;9.40;81.50;;;8.60;78.16;98178.50;5058148;28;20489;-67
2024/03/21 07:07:33;;;;;;;21.30;13.27;;;9.50;81.60;;;8.76;77.75;98182.75;5060684;28;20483;-69
2024/03/21 07:10:00;;;;;;;16.07;12.30;;;9.50;81.40;;;9.05;76.73;98185.34;5055278;28;21864;-68
2024/03/21 07:12:27;;;;;;;19.07;12.77;;;9.60;81.40;;;9.17;75.59;98188.28;5059185;28;20496;-68
2024/03/21 07:14:57;;;;;;;15.13;12.20;;;9.70;81.00;;;9.24;75.86;98188.31;5064794;28;20488;-67
2024/03/21 07:17:24;;;;;;;21.20;14.27;;;9.70;80.90;;;9.24;74.82;98194.53;5054570;28;20511;-67
2024/03/21 07:19:52;;;;;;;16.67;12.73;;;9.80;80.60;;;9.27;74.45;98196.81;5060725;28;21256;-67
2024/03/21 07:22:20;;;;;;;17.50;13.77;;;9.80;80.60;;;9.24;75.68;98205.31;5047247;28;20599;-67
2024/03/21 07:24:47;;;;;;;18.90;13.73;;;9.90;80.60;;;9.42;75.13;98203.91;5062057;28;20476;-67
2024/03/21 07:27:13;;;;;;;19.60;13.90;;;10.00;79.50;;;9.19;75.54;98202.41;5078596;28;20592;-68
2024/03/21 07:29:41;;;;;;;23.07;14.30;;;10.10;79.20;;;9.66;74.71;98204.41;5061567;28;20614;-68
2024/03/21 07:32:09;;;;;;;16.73;13.60;;;10.30;79.30;;;9.57;73.34;98207.28;5058338;28;20476;-68
2024/03/21 07:34:36;;;;;;;19.53;14.67;;;10.40;78.80;;;10.10;71.96;98219.19;5058342;28;20989;-68
2024/03/21 07:37:04;;;;;;;20.90;15.00;;;10.70;78.60;;;9.96;72.14;98218.31;5066445;28;20464;-68
2024/03/21 07:39:32;;;;;;;18.03;13.23;;;10.80;78.00;;;9.88;72.97;98221.25;5062794;28;20598;-68
2024/03/21 07:41:59;;;;;;;16.27;12.93;;;10.80;77.80;;;9.87;72.54;98223.09;5058890;28;20476;-68
2024/03/21 07:44:28;;;;;;;23.57;13.67;;;10.80;77.80;;;9.69;73.14;98222.88;5055544;28;20479;-68
2024/03/21 07:46:55;;;;;;;18.53;13.60;;;10.70;77.60;;;9.92;72.51;98233.28;5055648;28;20484;-68
2024/03/21 07:49:24;;;;;;;16.90;12.77;;;10.80;77.80;;;10.36;71.30;98233.69;5057726;28;20556;-68
2024/03/21 07:51:51;;;;;;;16.50;13.03;;;11.10;77.60;;;10.54;70.41;98235.78;5059686;28;21215;-67
2024/03/21 07:54:18;;;;;;;21.07;13.80;;;11.30;77.00;;;10.85;69.00;98242.38;5076423;28;20488;-68
2024/03/21 07:56:44;;;;;;;19.63;13.10;;;11.50;76.70;;;11.25;67.34;98236.00;5059480;28;20555;-68
2024/03/21 07:59:12;;;;;;;17.83;12.47;;;11.80;76.40;;;11.02;67.12;98202.22;5061147;28;20486;-68
2024/03/21 08:01:38;;;;;;;17.53;12.20;;;11.90;76.00;;;11.64;66.14;98221.69;5060947;28;20477;-68
2024/03/21 08:04:07;;;;;;;15.30;12.50;;;12.10;75.80;;;12.22;63.76;98233.41;5057699;28;20483;-68
2024/03/21 08:06:35;;;;;;;21.50;12.93;;;12.50;75.20;;;12.62;62.23;98238.44;5058224;28;20472;-69
2024/03/21 08:09:03;;;;;;;16.10;13.10;;;12.90;74.20;;;12.92;61.37;98235.00;5057481;28;20574;-67
2024/03/21 08:11:31;;;;;;;16.50;13.73;;;13.30;73.70;;;13.19;59.52;98229.28;5053452;28;20487;-67
2024/03/21 08:13:58;;;;;;;16.70;12.70;;;13.60;72.20;;;13.77;58.57;98221.66;5056921;28;20516;-68
2024/03/21 08:16:24;;;;;;;18.50;12.50;;;13.90;72.10;;;13.81;57.68;98217.44;5059880;28;21006;-69
2024/03/21 08:18:51;;;;;;;16.97;12.90;;;14.30;70.90;;;13.86;57.62;98220.25;5057888;28;20488;-68
2024/03/21 08:21:19;;;;;;;20.03;12.70;;;14.50;70.20;;;13.92;57.10;98223.13;5054878;28;21004;-68
2024/03/21 08:23:48;;;;;;;17.37;11.43;;;14.50;69.50;;;13.87;57.13;98232.78;5057345;28;20587;-68
2024/03/21 08:26:16;;;;;;;12.57;11.20;;;14.50;69.00;;;13.45;57.85;98246.34;5061050;28;21317;-68
2024/03/21 08:28:44;;;;;;;12.30;11.00;;;14.30;68.40;;;13.76;56.88;98238.19;5025495;28;21225;-69
2024/03/21 08:31:10;;;;;;;14.27;11.00;;;14.30;68.60;;;13.67;56.88;98230.38;5056155;28;20577;-69
2024/03/21 08:33:37;;;;;;;14.13;11.77;;;14.30;68.30;;;13.94;57.00;98221.81;5055094;28;20486;-68
2024/03/21 08:36:05;;;;;;;11.53;10.40;;;14.40;68.50;;;14.00;56.40;98225.50;5060758;28;20469;-69
2024/03/21 08:38:33;;;;;;;13.43;11.77;;;14.40;68.20;;;13.86;57.35;98233.03;5075426;28;20485;-68
2024/03/21 08:41:00;;;;;;;11.47;10.30;;;14.40;68.10;;;13.70;57.71;98242.66;5057408;28;20709;-69
2024/03/21 08:43:28;;;;;;;13.57;11.50;;;14.40;68.10;;;13.84;57.38;98238.69;5058868;28;20480;-69
2024/03/21 08:45:54;;;;;;;11.90;10.60;;;14.40;67.90;;;13.42;57.71;98235.88;5057141;28;20507;-68
2024/03/21 08:48:21;;;;;;;12.98;11.68;;;14.30;67.60;;;13.34;58.74;98249.78;5061523;28;20469;-67
2024/03/21 08:50:49;;;;;;;11.70;10.50;;;14.10;68.10;;;13.28;58.56;98237.94;5059995;28;23490;-67
2024/03/21 08:53:16;;;;;;;12.73;10.83;;;13.90;68.20;;;13.17;59.15;98236.84;5059478;28;20522;-67
2024/03/21 08:55:42;;;;;;;13.60;10.70;;;13.80;68.40;;;13.35;58.89;98229.72;5063231;28;20489;-68
2024/03/21 08:58:12;;;;;;;10.67;9.67;;;13.80;68.40;;;13.72;58.16;98229.66;5061779;28;20701;-68
2024/03/21 09:00:39;;;;;;;11.40;10.30;;;14.10;68.40;;;13.71;57.76;98238.88;5062326;28;20919;-68
2024/03/21 09:03:08;;;;;;;11.00;9.63;;;14.20;68.00;;;13.72;57.71;98243.25;5068297;28;20841;-68
2024/03/21 09:05:34;;;;;;;11.13;9.53;;;14.10;68.00;;;13.47;57.95;98200.78;5067387;28;20486;-69
2024/03/21 09:08:01;;;;;;;16.80;11.30;;;14.20;68.00;;;13.66;58.42;98222.44;5067706;28;20478;-71
2024/03/21 09:10:28;;;;;;;15.53;10.70;;;14.10;68.20;;;13.48;58.65;98229.59;5068210;28;20981;-69
2024/03/21 09:12:55;;;;;;;11.10;10.00;;;14.10;68.00;;;13.70;58.62;98231.78;5084139;28;20488;-69
2024/03/21 09:15:23;;;;;;;15.87;10.53;;;14.30;68.10;;;13.96;57.61;98222.44;5071374;28;20583;-68
2024/03/21 09:17:50;;;;;;;14.50;11.33;;;14.60;67.90;;;13.83;57.70;98215.31;5059981;28;20472;-69
2024/03/21 09:20:18;;;;;;;12.80;10.33;;;14.60;67.60;;;14.46;56.33;98220.38;5067024;28;20746;-68
2024/03/21 09:22:46;;;;;;;13.80;11.93;;;14.80;67.60;;;14.23;56.31;98219.28;5068589;28;20477;-69
2024/03/21 09:25:14;;;;;;;11.30;9.57;;;14.90;67.20;;;14.85;55.20;98218.00;5081358;28;20482;-68
2024/03/21 09:27:41;;;;;;;11.80;10.70;;;15.10;67.20;;;15.30;54.16;98221.94;5061131;28;20507;-68
2024/03/21 09:30:09;;;;;;;11.93;10.70;;;15.50;66.90;;;15.58;53.25;98220.31;5068492;28;20475;-68
2024/03/21 09:32:37;;;;;;;13.17;11.50;;;15.80;66.20;;;15.56;53.30;98222.47;5063758;28;20480;-67
2024/03/21 09:35:06;;;;;;;14.60;11.23;;;15.90;66.10;;;15.71;52.70;98211.00;5083791;28;20487;-69
2024/03/21 09:37:34;;;;;;;12.73;11.43;;;16.00;65.70;;;15.51;53.56;98218.81;5067637;28;20482;-68
2024/03/21 09:40:00;;;;;;;11.27;10.17;;;16.10;65.80;;;15.52;53.38;98223.19;5068052;28;20876;-68
2024/03/21 09:42:28;;;;;;;11.23;9.90;;;16.10;65.70;;;15.55;53.24;98223.53;5062504;28;20477;-68
2024/03/21 09:44:56;;;;;;;11.57;10.20;;;16.10;65.40;;;15.95;52.25;98221.00;5066635;28;20485;-67
2024/03/21 09:47:27;;;;;;;12.17;10.87;;;16.30;65.20;;;15.90;53.37;98218.19;5055461;28;20924;-68
2024/03/21 09:49:54;;;;;;;12.03;9.83;;;16.40;65.50;;;15.88;53.16;98214.84;5062191;28;21248;-68
2024/03/21 09:52:22;;;;;;;12.13;10.10;;;16.40;65.30;;;16.08;52.24;98209.78;5066758;28;20474;-68
2024/03/21 09:54:48;;;;;;;11.77;10.57;;;16.60;65.20;;;15.63;53.62;98207.84;5068611;28;20514;-68
2024/03/21 09:57:16;;;;;;;12.03;10.83;;;16.30;65.00;;;16.14;52.51;98214.22;5085665;28;20486;-68
2024/03/21 09:59:42;;;;;;;10.70;9.70;;;16.50;65.40;;;16.12;52.70;98193.75;5069459;28;20537;-68
2024/03/21 10:02:12;;;;;;;15.40;10.10;;;16.70;65.10;;;16.00;52.95;98202.03;5068560;28;20483;-68
2024/03/21 10:04:42;;;;;;;11.37;10.30;;;16.70;64.80;;;16.12;51.83;98155.59;5069591;28;20474;-69
2024/03/21 10:07:19;;;;;;;15.30;11.27;;;16.80;64.80;;;16.40;52.64;98195.56;5061317;28;20471;-68
2024/03/21 10:09:53;;;;;;;17.03;10.93;;;16.80;65.00;;;16.57;51.77;98194.72;5064806;28;20462;-70
2024/03/21 10:12:20;;;;;;;13.53;10.20;;;17.10;64.50;;;16.75;52.02;98192.78;5052355;28;20562;-69
2024/03/21 10:14:46;;;;;;;10.93;9.93;;;17.20;64.70;;;17.02;51.15;98195.66;5066778;28;20483;-68
2024/03/21 10:17:14;;;;;;;11.70;10.60;;;17.40;64.30;;;17.02;51.23;98203.00;5060154;28;20943;-69
2024/03/21 10:19:40;;;;;;;12.87;10.00;;;17.50;64.30;;;17.53;50.44;98200.88;5066052;28;20826;-69
2024/03/21 10:22:07;;;;;;;11.27;10.17;;;17.80;64.30;;;17.28;50.37;98204.97;5065117;28;21139;-69